KBVY/BVY METAR and TAF weather

Enter ICAO airport designator
Station Type Date Time Source
KBVY METAR 2022/09/26 08:53 UTC NOAA

KBVY 260853Z AUTO 26003KT 8SM CLR 13/13 A2955 RMK AO2 SLP003 60005 T01330128 56000


Station Type Date Time Source
KBVY Decoded METAR 2022/09/26 08:53 UTC NOAA

BEVERLY MUNICIPAL AIRPORT, MA, United States (KBVY) 42-35N 070-55W 28M
Sep 26, 2022 - 04:53 AM EDT / 2022.09.26 0853 UTC
Wind: from the W (260 degrees) at 3 MPH (3 KT):0
Visibility: 8 mile(s):0
Sky conditions: clear
Temperature: 55.9 F (13.3 C)
Dew Point: 55.0 F (12.8 C)
Relative Humidity: 96%
Pressure (altimeter): 29.55 in. Hg (1000 hPa)
Pressure tendency: 0.00 inches (0.0 hPa) lower than three hours ago
ob: KBVY 260853Z AUTO 26003KT 8SM CLR 13/13 A2955 RMK AO2 SLP003 60005 T01330128 56000
cycle: 9

Station Type Date Time Source
KBVY TAF UTC NOAA

Error!

Example: see airport list